CheckWX is a tool to help pilots better visualize weather data.  It is not intended as a substitute for an official pre-flight weather briefing.

18:38:25 UTC

KMRF METAR
Marfa Municipal Airport
Marfa, Texas, USA
Current

42 mins ago

KMRF 261756Z AUTO 13011G19KT 10SM CLR 21/10 A3029 RMK AO2 SLP216 T02110100 10211 20072 58004
Observed
Mar-26 @ 17:56 UTC
Wind
  • 130° at 11 KTS
  • Gusting to 19 KTS
Visibility
10 SM
Flight Rules
VFR
Cloud Levels
  • Clear skies
Temperature
21°C / 70°F
Dewpoint
10°C / 50°F
Humidity
50%
Altimeter
30.29" Hg
Pressure
1021.6 hPa
Previous

2 hours ago

KMRF 261656Z AUTO 16011G17KT 9SM FEW031 19/10 A3031 RMK AO2 SLP225 T01940100
Observed
Mar-26 @ 16:56 UTC
Wind
  • 160° at 11 KTS
  • Gusting to 17 KTS
Visibility
9 SM
Flight Rules
VFR
Cloud Levels
  • Few at 3,100' AGL
Temperature
19°C / 66°F
Dewpoint
10°C / 50°F
Humidity
56%
Altimeter
30.31" Hg
Pressure
1022.5 hPa
Previous

3 hours ago

KMRF 261556Z AUTO 11009KT 10SM CLR 17/11 A3031 RMK AO2 SLP223 T01720106
Observed
Mar-26 @ 15:56 UTC
Wind
  • 110° at 9 KTS
Visibility
10 SM
Flight Rules
VFR
Cloud Levels
  • Clear skies
Temperature
17°C / 63°F
Dewpoint
11°C / 52°F
Humidity
68%
Altimeter
30.31" Hg
Pressure
1022.3 hPa